Impacts METAR Board
IDs:

KCSG - Columbus Arpt, GA, US

Updated at: 1000 UTC 17 Feb 2019
Potential Impact None Slight Moderate High
Time 16/22Z 16/23Z 17/00Z 17/01Z 17/02Z 17/03Z 17/04Z 17/05Z 17/06Z 17/07Z 17/08Z 17/09Z 17/10Z
Temp74 72 68 65 63 62 60 58 57 56 56 55 56
Dewpt55 53 53 54 54 53 52 52 52 52 52 50 49
Altim29.75 29.77 29.79 29.80 29.82 29.85 29.85 29.85 29.86 29.86 29.85 29.85 29.87
VIS10 10 10 10 10 10 10 10 10 10 10 10 10
CIG-- -- -- -- -- -- -- -- -- -- 120 -- 26
CoverFEWCLRCLRCLRCLRFEWFEWFEWSCTFEWBKNSCTBKN
FltCatVFRVFRVFRVFRVFRVFRVFRVFRVFRVFRVFRVFRMVFR
WX---------------------RA----
WDir2902903003003101040000100130100
WSpd9 11 5 5 5 7 3 0 0 0 5 5 4
WGst17 -- -- -- -- -- -- -- -- -- -- -- --
Raw hourly METARs
KCSG 162151Z 29009G17KT 10SM FEW039 23/13 A2975 RMK AO2 SLP071 T02330128
KCSG 162251Z 29011KT 10SM CLR 22/12 A2977 RMK AO2 SLP077 T02220117
KCSG 162351Z 30005KT 10SM CLR 20/12 A2979 RMK AO2 SLP085 T02000117 10244 20200 53017
KCSG 170051Z 30005KT 10SM CLR 18/12 A2980 RMK AO2 SLP088 T01830122
KCSG 170151Z AUTO 31005KT 10SM CLR 17/12 A2982 RMK AO2 SLP094 T01720122
KCSG 170251Z AUTO 01007KT 10SM FEW050 17/12 A2985 RMK AO2 SLP104 T01670117 53019
KCSG 170351Z AUTO 04003KT 10SM FEW043 16/11 A2985 RMK AO2 SLP103 T01560111
KCSG 170451Z AUTO 00000KT 10SM FEW050 14/11 A2985 RMK AO2 SLP106 T01440111 402440139
KCSG 170551Z AUTO 00000KT 10SM SCT050 14/11 A2986 RMK AO2 SLP107 T01390111 10200 20139 53003
KCSG 170651Z AUTO 00000KT 10SM FEW120 13/11 A2986 RMK AO2 SLP110 T01330111
KCSG 170751Z AUTO 10005KT 10SM -RA FEW060 BKN120 13/11 A2985 RMK AO2 RAB44 SLP107 P0000 T01330111
KCSG 170851Z AUTO 13005KT 10SM FEW036 SCT120 13/10 A2985 RMK AO2 RAE0755 SLP106 P0000 60000 T01280100 58001
KCSG 171000Z AUTO 10004KT 10SM BKN026 BKN120 13/09 A2987 RMK AO2 T01330094



Page loaded:  10:16 UTC  |   02:16 AM Pacific  |   03:16 AM Mountain  |   04:16 AM Central  |   05:16 AM Eastern

 

ADVISORIES

FORECASTS

FORECASTS

OBSERVATIONS

USER TOOLS

ABOUT US